createdAt,value
2017-01-26T00:00:22.455Z,5.22
2017-01-26T00:01:31.402Z,5.35
2017-01-26T00:02:40.350Z,5.35
2017-01-26T00:03:49.392Z,5.38
2017-01-26T00:04:58.353Z,5.46
2017-01-26T00:06:07.402Z,5.45
2017-01-26T00:07:16.354Z,5.45
2017-01-26T00:08:25.301Z,5.43
2017-01-26T00:09:34.261Z,5.51
2017-01-26T00:10:43.212Z,5.38
2017-01-26T00:11:52.254Z,5.39
2017-01-26T00:13:01.209Z,5.35
2017-01-26T00:14:10.170Z,5.36
2017-01-26T00:15:19.126Z,5.35
2017-01-26T00:16:28.081Z,5.33
2017-01-26T00:17:37.032Z,5.33
2017-01-26T00:18:45.985Z,5.21
2017-01-26T00:19:54.942Z,5.17
2017-01-26T00:21:03.900Z,5.24
2017-01-26T00:22:12.951Z,5.24
2017-01-26T00:23:21.910Z,5.31
2017-01-26T00:24:30.899Z,5.24
2017-01-26T00:25:39.857Z,5.22
2017-01-26T00:26:48.900Z,5.3
2017-01-26T00:27:57.858Z,5.3
2017-01-26T00:29:06.814Z,5.25
2017-01-26T00:30:15.809Z,5.24
2017-01-26T00:31:24.800Z,5.24
2017-01-26T00:32:33.751Z,5.22
2017-01-26T00:33:42.793Z,5.22
2017-01-26T00:34:51.834Z,5.17
2017-01-26T00:36:00.789Z,5.12
2017-01-26T00:37:09.748Z,4.99
2017-01-26T00:38:18.724Z,5.03
2017-01-26T00:39:27.675Z,4.89
2017-01-26T00:40:36.636Z,4.92
2017-01-26T00:41:45.591Z,4.91
2017-01-26T00:42:54.564Z,4.89
2017-01-26T00:44:03.514Z,4.99
2017-01-26T00:45:12.470Z,4.96
2017-01-26T00:46:21.429Z,5.02
2017-01-26T00:47:30.383Z,4.97
2017-01-26T00:48:39.425Z,4.96
2017-01-26T00:49:48.385Z,4.99
2017-01-26T00:50:57.337Z,5.02
2017-01-26T00:52:06.291Z,5.02
2017-01-26T00:53:15.254Z,5.07
2017-01-26T00:54:24.238Z,5.02
2017-01-26T00:55:33.189Z,5
2017-01-26T00:56:42.153Z,5.03
2017-01-26T00:57:51.104Z,4.91
2017-01-26T00:59:00.066Z,4.94
2017-01-26T01:00:09.139Z,4.94
2017-01-26T01:01:18.119Z,4.82
2017-01-26T01:02:27.078Z,4.94
2017-01-26T01:03:36.035Z,4.89
2017-01-26T01:04:44.987Z,4.91
2017-01-26T01:05:53.943Z,4.94
2017-01-26T01:07:02.897Z,4.92
2017-01-26T01:08:11.854Z,4.85
2017-01-26T01:09:20.839Z,4.94
2017-01-26T01:10:29.793Z,4.91
2017-01-26T01:11:38.749Z,4.89
2017-01-26T01:12:47.708Z,4.89
2017-01-26T01:13:56.663Z,4.85
2017-01-26T01:15:05.618Z,4.92
2017-01-26T01:16:14.575Z,4.92
2017-01-26T01:17:23.526Z,4.96
2017-01-26T01:18:32.474Z,4.92
2017-01-26T01:19:41.432Z,4.86
2017-01-26T01:20:50.386Z,4.85
2017-01-26T01:21:59.345Z,4.78
2017-01-26T01:23:08.303Z,4.96
2017-01-26T01:24:17.257Z,4.94
2017-01-26T01:25:26.204Z,4.89
2017-01-26T01:26:35.160Z,4.88
2017-01-26T01:27:44.115Z,4.99
2017-01-26T01:28:53.162Z,4.91
2017-01-26T01:30:02.120Z,4.94
2017-01-26T01:31:11.103Z,4.97
2017-01-26T01:32:20.057Z,4.96
2017-01-26T01:33:29.010Z,4.89
2017-01-26T01:34:37.970Z,4.89
2017-01-26T01:35:46.927Z,4.99
2017-01-26T01:36:55.903Z,4.82
2017-01-26T01:38:04.856Z,4.88
2017-01-26T01:39:13.933Z,4.99
2017-01-26T01:40:22.894Z,4.88
2017-01-26T01:41:31.854Z,5
2017-01-26T01:42:40.808Z,4.94
2017-01-26T01:43:49.767Z,4.99
2017-01-26T01:44:58.718Z,4.82
2017-01-26T01:46:07.729Z,4.91
2017-01-26T01:47:16.685Z,4.91
2017-01-26T01:48:26.099Z,4.88
2017-01-26T01:49:35.238Z,4.91
2017-01-26T01:50:44.212Z,4.91
2017-01-26T01:51:54.397Z,4.92
2017-01-26T01:53:03.356Z,4.88
2017-01-26T01:54:13.634Z,4.96
2017-01-26T01:55:22.594Z,4.94
2017-01-26T01:56:32.842Z,4.91
2017-01-26T01:57:42.128Z,4.85
2017-01-26T01:58:52.093Z,4.89
2017-01-26T02:00:03.545Z,4.97
2017-01-26T02:01:13.709Z,4.86
2017-01-26T02:02:24.166Z,4.88
2017-01-26T02:03:35.462Z,4.86
2017-01-26T02:04:45.202Z,4.86
2017-01-26T02:05:59.560Z,4.78
2017-01-26T02:07:10.326Z,4.78
2017-01-26T02:08:20.040Z,4.78
2017-01-26T02:09:31.812Z,4.78
2017-01-26T02:10:46.179Z,4.75
2017-01-26T02:12:00.277Z,4.73
2017-01-26T02:13:09.230Z,4.77
2017-01-26T02:14:21.131Z,4.84
2017-01-26T02:15:31.519Z,4.8
2017-01-26T02:16:40.477Z,4.8
2017-01-26T02:17:50.444Z,4.82
2017-01-26T02:18:59.395Z,4.72
2017-01-26T02:20:08.760Z,4.78
2017-01-26T02:21:17.714Z,4.75
2017-01-26T02:22:26.666Z,4.82
2017-01-26T02:23:35.624Z,4.8
2017-01-26T02:24:44.575Z,4.86
2017-01-26T02:25:53.525Z,4.8
2017-01-26T02:27:02.487Z,4.86
2017-01-26T02:28:11.443Z,4.72
2017-01-26T02:29:20.406Z,4.72
2017-01-26T02:30:29.362Z,4.65
2017-01-26T02:31:38.318Z,4.69
2017-01-26T02:32:47.318Z,4.65
2017-01-26T02:33:56.269Z,4.62
2017-01-26T02:35:05.223Z,4.66
2017-01-26T02:36:14.262Z,4.65
2017-01-26T02:37:23.220Z,4.67
2017-01-26T02:38:32.175Z,4.67
2017-01-26T02:39:41.131Z,4.7
2017-01-26T02:40:50.084Z,4.69
2017-01-26T02:41:59.043Z,4.65
2017-01-26T02:43:07.996Z,4.63
2017-01-26T02:44:17.002Z,4.58
2017-01-26T02:45:25.978Z,4.58
2017-01-26T02:46:34.938Z,4.6
2017-01-26T02:47:43.929Z,4.58
2017-01-26T02:48:52.881Z,4.59
2017-01-26T02:50:01.925Z,4.6
2017-01-26T02:51:10.876Z,4.59
2017-01-26T02:52:19.841Z,4.62
2017-01-26T02:53:28.801Z,4.58
2017-01-26T02:54:37.759Z,4.6
2017-01-26T02:55:46.707Z,4.62
2017-01-26T02:56:55.657Z,4.54
2017-01-26T02:58:04.608Z,4.59
2017-01-26T02:59:13.563Z,4.52
2017-01-26T03:00:22.517Z,4.63
2017-01-26T03:01:31.476Z,4.62
2017-01-26T03:02:40.435Z,4.66
2017-01-26T03:03:49.408Z,4.65
2017-01-26T03:04:58.356Z,4.52
2017-01-26T03:06:07.720Z,4.55
2017-01-26T03:07:16.676Z,4.54
2017-01-26T03:08:25.631Z,4.59
2017-01-26T03:09:34.578Z,4.59
2017-01-26T03:10:43.533Z,4.6
2017-01-26T03:11:52.497Z,4.59
2017-01-26T03:13:01.451Z,4.63
2017-01-26T03:14:10.414Z,4.59
2017-01-26T03:15:19.363Z,4.54
2017-01-26T03:16:28.321Z,4.55
2017-01-26T03:17:37.276Z,4.52
2017-01-26T03:18:46.233Z,4.54
2017-01-26T03:19:55.193Z,4.6
2017-01-26T03:21:04.148Z,4.47
2017-01-26T03:22:13.100Z,4.51
2017-01-26T03:23:22.057Z,4.58
2017-01-26T03:24:31.013Z,4.58
2017-01-26T03:25:39.969Z,4.47
2017-01-26T03:26:48.925Z,4.55
2017-01-26T03:27:57.878Z,4.54
2017-01-26T03:29:06.830Z,4.54
2017-01-26T03:30:15.785Z,4.5
2017-01-26T03:31:24.766Z,4.6
2017-01-26T03:32:33.721Z,4.52
2017-01-26T03:33:42.672Z,4.58
2017-01-26T03:34:51.632Z,4.7
2017-01-26T03:36:00.585Z,4.69
2017-01-26T03:37:09.555Z,4.65
2017-01-26T03:38:18.509Z,4.67
2017-01-26T03:39:27.496Z,4.55
2017-01-26T03:40:36.448Z,4.52
2017-01-26T03:41:45.404Z,4.62
2017-01-26T03:42:54.351Z,4.6
2017-01-26T03:44:03.306Z,4.6
2017-01-26T03:45:12.262Z,4.5
2017-01-26T03:46:21.216Z,4.58
2017-01-26T03:47:30.170Z,4.6
2017-01-26T03:48:39.141Z,4.55
2017-01-26T03:49:48.097Z,4.55
2017-01-26T03:50:57.051Z,4.51
2017-01-26T03:52:06.003Z,4.52
2017-01-26T03:53:14.958Z,4.58
2017-01-26T03:54:23.912Z,4.52
2017-01-26T03:55:32.868Z,4.37
2017-01-26T03:56:41.819Z,4.45
2017-01-26T03:57:50.772Z,4.44
2017-01-26T03:58:59.728Z,4.42
2017-01-26T04:00:08.685Z,4.4
2017-01-26T04:01:17.642Z,4.27
2017-01-26T04:02:26.598Z,4.26
2017-01-26T04:03:35.551Z,4.29
2017-01-26T04:04:44.503Z,4.32
2017-01-26T04:05:53.457Z,4.33
2017-01-26T04:07:02.409Z,4.34
2017-01-26T04:08:11.364Z,4.32
2017-01-26T04:09:20.317Z,4.36
2017-01-26T04:10:29.278Z,4.41
2017-01-26T04:11:38.236Z,4.45
2017-01-26T04:12:47.191Z,4.34
2017-01-26T04:13:56.141Z,4.47
2017-01-26T04:15:05.113Z,4.41
2017-01-26T04:16:14.068Z,4.42
2017-01-26T04:17:23.020Z,4.47
2017-01-26T04:18:31.971Z,4.55
2017-01-26T04:19:40.931Z,4.52
2017-01-26T04:20:49.883Z,4.51
2017-01-26T04:21:58.837Z,4.6
2017-01-26T04:23:07.851Z,4.58
2017-01-26T04:24:16.798Z,4.5
2017-01-26T04:25:25.751Z,4.58
2017-01-26T04:26:34.709Z,4.48
2017-01-26T04:27:43.666Z,4.55
2017-01-26T04:28:52.614Z,4.59
2017-01-26T04:30:01.568Z,4.51
2017-01-26T04:31:10.520Z,4.45
2017-01-26T04:32:19.501Z,4.4
2017-01-26T04:33:28.467Z,4.41
2017-01-26T04:34:37.419Z,4.41
2017-01-26T04:35:46.376Z,4.41
2017-01-26T04:36:55.329Z,4.42
2017-01-26T04:38:04.288Z,4.4
2017-01-26T04:39:13.244Z,4.4
2017-01-26T04:40:22.195Z,4.42
2017-01-26T04:41:31.154Z,4.27
2017-01-26T04:42:40.107Z,4.34
2017-01-26T04:43:49.057Z,4.29
2017-01-26T04:44:58.012Z,4.34
2017-01-26T04:46:07.052Z,4.36
2017-01-26T04:47:16.005Z,4.27
2017-01-26T04:48:24.952Z,4.32
2017-01-26T04:49:33.906Z,4.34
2017-01-26T04:50:42.883Z,4.33
2017-01-26T04:51:51.844Z,4.3
2017-01-26T04:53:00.798Z,4.33
2017-01-26T04:54:09.750Z,4.32
2017-01-26T04:55:18.708Z,4.3
2017-01-26T04:56:27.660Z,4.33
2017-01-26T04:57:36.608Z,4.33
2017-01-26T04:58:45.560Z,4.29
2017-01-26T04:59:54.512Z,4.34
2017-01-26T05:01:03.470Z,4.22
2017-01-26T05:02:12.428Z,4.23
2017-01-26T05:03:21.380Z,4.18
2017-01-26T05:04:30.338Z,4.16
2017-01-26T05:05:39.291Z,4.12
2017-01-26T05:06:48.240Z,4.09
2017-01-26T05:07:57.198Z,4.02
2017-01-26T05:09:06.156Z,4.05
2017-01-26T05:10:15.106Z,3.97
2017-01-26T05:11:24.057Z,3.94
2017-01-26T05:12:33.004Z,3.94
2017-01-26T05:13:41.958Z,3.94
2017-01-26T05:14:50.957Z,3.98
2017-01-26T05:15:59.912Z,3.98
2017-01-26T05:17:08.866Z,4
2017-01-26T05:18:17.818Z,3.96
2017-01-26T05:19:26.770Z,3.88
2017-01-26T05:20:35.726Z,3.94
2017-01-26T05:21:44.674Z,3.9
2017-01-26T05:22:53.626Z,3.94
2017-01-26T05:24:02.577Z,3.87
2017-01-26T05:25:11.526Z,3.9
2017-01-26T05:26:20.478Z,3.83
2017-01-26T05:27:29.444Z,3.87
2017-01-26T05:28:38.426Z,3.83
2017-01-26T05:29:47.376Z,3.88
2017-01-26T05:30:56.328Z,3.78
2017-01-26T05:32:05.286Z,3.83
2017-01-26T05:33:14.241Z,3.83
2017-01-26T05:34:23.191Z,3.78
2017-01-26T05:35:32.151Z,3.76
2017-01-26T05:36:41.098Z,3.73
2017-01-26T05:37:50.056Z,3.68
2017-01-26T05:38:59.008Z,3.75
2017-01-26T05:40:07.967Z,3.83
2017-01-26T05:41:16.917Z,3.72
2017-01-26T05:42:25.888Z,3.69
2017-01-26T05:43:34.844Z,3.73
2017-01-26T05:44:43.802Z,3.68
2017-01-26T05:45:52.752Z,3.83
2017-01-26T05:47:01.716Z,3.79
2017-01-26T05:48:10.757Z,3.73
2017-01-26T05:49:19.712Z,3.83
2017-01-26T05:50:28.691Z,3.83
2017-01-26T05:51:37.646Z,3.8
2017-01-26T05:52:46.605Z,3.84
2017-01-26T05:53:55.558Z,3.79
2017-01-26T05:55:04.505Z,3.8
2017-01-26T05:56:13.464Z,3.9
2017-01-26T05:57:22.414Z,3.88
2017-01-26T05:58:31.367Z,3.94
2017-01-26T05:59:40.324Z,3.9
2017-01-26T06:00:49.364Z,3.94
2017-01-26T06:01:58.317Z,3.91
2017-01-26T06:03:07.270Z,3.96
2017-01-26T06:04:16.220Z,3.96
2017-01-26T06:05:25.174Z,3.94
2017-01-26T06:06:34.124Z,3.94
2017-01-26T06:07:43.077Z,3.9
2017-01-26T06:08:52.065Z,4.04
2017-01-26T06:10:01.013Z,4.02
2017-01-26T06:11:09.967Z,3.94
2017-01-26T06:12:18.919Z,3.91
2017-01-26T06:13:27.871Z,3.91
2017-01-26T06:14:36.825Z,3.96
2017-01-26T06:15:45.775Z,3.97
2017-01-26T06:16:54.729Z,3.9
2017-01-26T06:18:03.685Z,3.87
2017-01-26T06:19:12.637Z,3.9
2017-01-26T06:20:21.591Z,3.93
2017-01-26T06:21:30.546Z,3.97
2017-01-26T06:22:39.499Z,3.94
2017-01-26T06:23:48.505Z,3.94
2017-01-26T06:24:57.459Z,3.97
2017-01-26T06:26:06.420Z,3.91
2017-01-26T06:27:15.375Z,3.96
2017-01-26T06:28:24.331Z,4.02
2017-01-26T06:29:33.286Z,4.09
2017-01-26T06:30:42.242Z,4.05
2017-01-26T06:31:51.185Z,4.02
2017-01-26T06:33:00.134Z,4.05
2017-01-26T06:34:09.087Z,4.09
2017-01-26T06:35:18.040Z,4.12
2017-01-26T06:36:27.043Z,4.08
2017-01-26T06:37:36.000Z,4.14
2017-01-26T06:38:44.960Z,4.11
2017-01-26T06:39:53.920Z,4.14
2017-01-26T06:41:02.877Z,4.09
2017-01-26T06:42:11.839Z,4.14
2017-01-26T06:43:20.794Z,4.11
2017-01-26T06:44:29.746Z,4.14
2017-01-26T06:45:38.701Z,4.08
2017-01-26T06:46:47.660Z,4.16
2017-01-26T06:47:56.613Z,4.15
2017-01-26T06:49:05.566Z,4.11
2017-01-26T06:50:14.520Z,4.09
2017-01-26T06:51:23.474Z,4.06
2017-01-26T06:52:32.516Z,4.12
2017-01-26T06:53:41.472Z,4.12
2017-01-26T06:54:50.463Z,4.16
2017-01-26T06:55:59.413Z,4.15
2017-01-26T06:57:08.369Z,4.18
2017-01-26T06:58:17.322Z,4.24
2017-01-26T06:59:26.359Z,4.23
2017-01-26T07:00:35.311Z,4.24
2017-01-26T07:01:44.262Z,4.18
2017-01-26T07:02:53.220Z,4.2
2017-01-26T07:04:02.178Z,4.24
2017-01-26T07:05:11.132Z,4.16
2017-01-26T07:06:20.084Z,4.27
2017-01-26T07:07:29.036Z,4.2
2017-01-26T07:08:37.995Z,4.29
2017-01-26T07:09:46.947Z,4.34
2017-01-26T07:10:55.903Z,4.3
2017-01-26T07:12:04.859Z,4.32
2017-01-26T07:13:13.828Z,4.34
2017-01-26T07:14:23.214Z,4.32
2017-01-26T07:15:32.171Z,4.32
2017-01-26T07:16:41.166Z,4.34
2017-01-26T07:17:50.139Z,4.36
2017-01-26T07:18:59.182Z,4.33
2017-01-26T07:20:08.149Z,4.44
2017-01-26T07:21:17.112Z,4.42
2017-01-26T07:22:26.060Z,4.48
2017-01-26T07:23:35.014Z,4.54
2017-01-26T07:24:43.963Z,4.51
2017-01-26T07:25:52.914Z,4.52
2017-01-26T07:27:01.864Z,4.55
2017-01-26T07:28:10.817Z,4.59
2017-01-26T07:29:19.769Z,4.45
2017-01-26T07:30:28.722Z,4.55
2017-01-26T07:31:37.681Z,4.54
2017-01-26T07:32:46.635Z,4.58
2017-01-26T07:33:55.623Z,4.6
2017-01-26T07:35:04.584Z,4.6
2017-01-26T07:36:13.540Z,4.59
2017-01-26T07:37:22.493Z,4.58
2017-01-26T07:38:31.451Z,4.63
2017-01-26T07:39:40.412Z,4.73
2017-01-26T07:40:49.369Z,4.69
2017-01-26T07:41:58.324Z,4.67
2017-01-26T07:43:07.691Z,4.72
2017-01-26T07:44:16.672Z,4.72
2017-01-26T07:45:25.627Z,4.7
2017-01-26T07:46:34.580Z,4.69
2017-01-26T07:47:43.623Z,4.75
2017-01-26T07:48:52.668Z,4.7
2017-01-26T07:50:01.624Z,4.66
2017-01-26T07:51:10.581Z,4.63
2017-01-26T07:52:19.552Z,4.58
2017-01-26T07:53:28.505Z,4.67
2017-01-26T07:54:37.460Z,4.72
2017-01-26T07:55:46.411Z,4.72
2017-01-26T07:56:55.447Z,4.62
2017-01-26T07:58:04.394Z,4.63
2017-01-26T07:59:13.346Z,4.58
2017-01-26T08:00:22.297Z,4.44
2017-01-26T08:01:31.252Z,4.5
2017-01-26T08:02:40.231Z,4.44
2017-01-26T08:03:49.185Z,4.42
2017-01-26T08:04:58.136Z,4.44
2017-01-26T08:06:07.114Z,4.42
2017-01-26T08:07:16.066Z,4.41
2017-01-26T08:08:25.017Z,4.42
2017-01-26T08:09:33.965Z,4.4
2017-01-26T08:10:42.915Z,4.4
2017-01-26T08:11:51.873Z,4.33
2017-01-26T08:13:00.824Z,4.45
2017-01-26T08:14:09.782Z,4.47
2017-01-26T08:15:18.758Z,4.41
2017-01-26T08:16:27.714Z,4.41
2017-01-26T08:17:36.669Z,4.45
2017-01-26T08:18:45.623Z,4.45
2017-01-26T08:20:03.310Z,4.44
2017-01-26T08:21:12.273Z,4.41
2017-01-26T08:22:21.227Z,4.34
2017-01-26T08:23:30.184Z,4.44
2017-01-26T08:24:39.137Z,4.4
2017-01-26T08:25:48.297Z,4.44
2017-01-26T08:26:57.247Z,4.37
2017-01-26T08:28:06.203Z,4.42
2017-01-26T08:29:15.160Z,4.42
2017-01-26T08:30:24.116Z,4.51
2017-01-26T08:31:33.155Z,4.51
2017-01-26T08:32:42.324Z,4.41
2017-01-26T08:33:51.302Z,4.47
2017-01-26T08:35:00.255Z,4.55
2017-01-26T08:36:09.220Z,4.54
2017-01-26T08:37:18.177Z,4.58
2017-01-26T08:38:27.155Z,4.52
2017-01-26T08:39:36.109Z,4.59
2017-01-26T08:40:45.065Z,4.59
2017-01-26T08:41:54.019Z,4.54
2017-01-26T08:43:02.972Z,4.59
2017-01-26T08:44:11.925Z,4.6
2017-01-26T08:45:20.971Z,4.47
2017-01-26T08:46:29.927Z,4.48
2017-01-26T08:47:38.884Z,4.48
2017-01-26T08:48:49.537Z,4.52
2017-01-26T08:50:00.548Z,4.55
2017-01-26T08:51:10.780Z,4.54
2017-01-26T08:52:20.513Z,4.54
2017-01-26T08:53:30.608Z,4.41
2017-01-26T08:54:39.704Z,4.48
2017-01-26T08:55:48.958Z,4.41
2017-01-26T08:56:58.791Z,4.4
2017-01-26T08:58:08.427Z,4.3
2017-01-26T08:59:18.159Z,4.41
2017-01-26T09:00:27.112Z,4.41
2017-01-26T09:01:36.698Z,4.37
2017-01-26T09:02:46.649Z,4.4
2017-01-26T09:03:57.899Z,4.44
2017-01-26T09:05:09.121Z,4.47
2017-01-26T09:06:19.529Z,4.4
2017-01-26T09:07:29.539Z,4.45
2017-01-26T09:08:39.491Z,4.47
2017-01-26T09:09:48.770Z,4.44
2017-01-26T09:10:58.028Z,4.45
2017-01-26T09:12:08.433Z,4.48
2017-01-26T09:13:18.577Z,4.52
2017-01-26T09:14:28.916Z,4.55
2017-01-26T09:15:39.090Z,4.54
2017-01-26T09:16:49.580Z,4.48
2017-01-26T09:17:59.939Z,4.59
2017-01-26T09:19:09.965Z,4.6
2017-01-26T09:20:20.359Z,4.59
2017-01-26T09:21:30.809Z,4.63
2017-01-26T09:22:41.116Z,4.63
2017-01-26T09:23:51.094Z,4.77
2017-01-26T09:25:00.252Z,4.78
2017-01-26T09:26:09.243Z,4.72
2017-01-26T09:27:18.214Z,4.7
2017-01-26T09:28:27.192Z,4.77
2017-01-26T09:29:36.174Z,4.75
2017-01-26T09:30:45.154Z,4.65
2017-01-26T09:31:54.131Z,4.58
2017-01-26T09:33:03.111Z,4.45
2017-01-26T09:34:12.083Z,4.44
2017-01-26T09:35:21.070Z,4.45
2017-01-26T09:36:30.050Z,4.44
2017-01-26T09:37:39.092Z,4.32
2017-01-26T09:38:48.147Z,4.29
2017-01-26T09:39:57.100Z,4.3
2017-01-26T09:41:06.100Z,4.29
2017-01-26T09:42:15.096Z,4.32
2017-01-26T09:43:24.067Z,4.24
2017-01-26T09:44:33.020Z,4.27
2017-01-26T09:45:41.992Z,4.32
2017-01-26T09:46:50.954Z,4.27
2017-01-26T09:47:59.953Z,4.3
2017-01-26T09:49:08.908Z,4.34
2017-01-26T09:50:17.868Z,4.3
2017-01-26T09:51:26.819Z,4.34
2017-01-26T09:52:35.769Z,4.3
2017-01-26T09:53:44.819Z,4.29
2017-01-26T09:54:53.873Z,4.33
2017-01-26T09:56:02.918Z,4.32
2017-01-26T09:57:11.876Z,4.4
2017-01-26T09:58:20.833Z,4.45
2017-01-26T09:59:29.793Z,4.59
2017-01-26T10:00:38.753Z,4.58
2017-01-26T10:01:47.796Z,4.45
2017-01-26T10:02:56.754Z,4.59
2017-01-26T10:04:05.708Z,4.58
2017-01-26T10:05:14.665Z,4.51
2017-01-26T10:06:23.621Z,4.4
2017-01-26T10:07:32.577Z,4.36
2017-01-26T10:08:41.538Z,4.51
2017-01-26T10:09:50.497Z,4.45
2017-01-26T10:10:59.460Z,4.48
2017-01-26T10:12:08.411Z,4.37
2017-01-26T10:13:17.370Z,4.42
2017-01-26T10:14:26.345Z,4.36
2017-01-26T10:15:35.293Z,4.37
2017-01-26T10:16:44.246Z,4.47
2017-01-26T10:17:53.195Z,4.44
2017-01-26T10:19:02.152Z,4.41
2017-01-26T10:20:11.107Z,4.41
2017-01-26T10:21:20.059Z,4.32
2017-01-26T10:22:29.018Z,4.4
2017-01-26T10:23:37.971Z,4.42
2017-01-26T10:24:46.931Z,4.4
2017-01-26T10:25:55.919Z,4.37
2017-01-26T10:27:04.875Z,4.41
2017-01-26T10:28:13.827Z,4.34
2017-01-26T10:29:22.789Z,4.51
2017-01-26T10:30:31.748Z,4.36
2017-01-26T10:31:40.962Z,4.52
2017-01-26T10:32:50.783Z,4.45
2017-01-26T10:33:59.961Z,4.52
2017-01-26T10:35:11.799Z,4.52
2017-01-26T10:36:22.288Z,4.5
2017-01-26T10:37:31.604Z,4.5
2017-01-26T10:38:40.568Z,4.48
2017-01-26T10:39:49.521Z,4.6
2017-01-26T10:40:58.478Z,4.6
2017-01-26T10:42:07.436Z,4.58
2017-01-26T10:43:16.388Z,4.65
2017-01-26T10:44:25.449Z,4.67
2017-01-26T10:45:34.402Z,4.62
2017-01-26T10:46:43.360Z,4.78
2017-01-26T10:47:52.330Z,4.8
2017-01-26T10:49:01.295Z,4.8
2017-01-26T10:50:10.250Z,4.89
2017-01-26T10:51:19.204Z,4.86
2017-01-26T10:52:28.159Z,4.86
2017-01-26T10:53:37.112Z,4.89
2017-01-26T10:54:46.067Z,4.89
2017-01-26T10:55:55.024Z,4.85
2017-01-26T10:57:03.982Z,4.92
2017-01-26T10:58:13.028Z,4.97
2017-01-26T10:59:21.987Z,5.06
2017-01-26T11:00:30.939Z,5.04
2017-01-26T11:01:39.891Z,5.06
2017-01-26T11:02:48.853Z,5.18
2017-01-26T11:03:57.815Z,5.13
2017-01-26T11:05:06.771Z,5.18
2017-01-26T11:06:15.727Z,5.28
2017-01-26T11:07:24.688Z,5.3
2017-01-26T11:08:33.992Z,5.18
2017-01-26T11:09:43.653Z,5.12
2017-01-26T11:10:53.464Z,5.17
2017-01-26T11:12:03.154Z,5.09
2017-01-26T11:13:12.890Z,5.09
2017-01-26T11:14:22.702Z,5.13
2017-01-26T11:15:32.385Z,5.3
2017-01-26T11:16:42.050Z,5.2
2017-01-26T11:17:51.093Z,5.22
2017-01-26T11:19:01.831Z,5.33
2017-01-26T11:20:11.863Z,5.31
2017-01-26T11:21:21.625Z,5.35
2017-01-26T11:22:31.213Z,5.38
2017-01-26T11:23:41.434Z,5.6
2017-01-26T11:24:51.396Z,5.56
2017-01-26T11:26:01.651Z,5.51
2017-01-26T11:27:10.608Z,5.75
2017-01-26T11:28:20.196Z,5.71
2017-01-26T11:29:29.155Z,5.72
2017-01-26T11:30:38.197Z,5.76
2017-01-26T11:31:47.150Z,5.81
2017-01-26T11:32:56.104Z,5.82
2017-01-26T11:34:05.064Z,5.85
2017-01-26T11:35:14.026Z,5.91
2017-01-26T11:36:22.986Z,5.9
2017-01-26T11:37:31.940Z,5.97
2017-01-26T11:38:40.905Z,6.03
2017-01-26T11:39:52.953Z,6.03
2017-01-26T11:41:01.919Z,6.03
2017-01-26T11:42:10.873Z,6.08
2017-01-26T11:43:19.838Z,6.03
2017-01-26T11:44:28.789Z,6.15
2017-01-26T11:45:37.745Z,6.19
2017-01-26T11:46:46.703Z,6.31
2017-01-26T11:47:55.657Z,6.41
2017-01-26T11:49:04.698Z,6.46
2017-01-26T11:50:13.661Z,6.51
2017-01-26T11:51:22.614Z,6.51
2017-01-26T11:52:31.572Z,6.48
2017-01-26T11:53:40.535Z,6.44
2017-01-26T11:54:49.491Z,6.33
2017-01-26T11:55:58.452Z,6.31
2017-01-26T11:57:07.413Z,6.28
2017-01-26T11:58:16.582Z,6.31
2017-01-26T11:59:26.320Z,6.43
2017-01-26T12:00:36.023Z,6.37
2017-01-26T12:01:45.577Z,6.33
2017-01-26T12:02:55.025Z,6.43
2017-01-26T12:04:04.260Z,6.38
2017-01-26T12:05:13.835Z,6.43
2017-01-26T12:06:23.916Z,6.51
2017-01-26T12:07:33.140Z,6.49
2017-01-26T12:08:43.019Z,6.64
2017-01-26T12:09:52.983Z,6.8
2017-01-26T12:11:02.197Z,6.84
2017-01-26T12:12:11.419Z,6.92
2017-01-26T12:13:21.662Z,7.05
2017-01-26T12:14:32.061Z,7.1
2017-01-26T12:15:42.335Z,7.15
2017-01-26T12:16:52.005Z,7.17
2017-01-26T12:18:01.617Z,7.16
2017-01-26T12:19:10.898Z,7.12
2017-01-26T12:20:21.170Z,7.16
2017-01-26T12:21:30.154Z,7.12
2017-01-26T12:22:39.105Z,7.2
2017-01-26T12:23:48.622Z,7.17
2017-01-26T12:24:57.631Z,7.27
2017-01-26T12:26:06.976Z,7.2
2017-01-26T12:27:17.927Z,7.17
2017-01-26T12:28:38.026Z,7.1
2017-01-26T12:29:57.758Z,6.97
2017-01-26T12:31:12.528Z,7.03
2017-01-26T12:32:21.490Z,6.94
2017-01-26T12:33:30.543Z,6.99
2017-01-26T12:34:39.497Z,6.89
2017-01-26T12:35:48.447Z,6.79
2017-01-26T12:36:57.408Z,6.85
2017-01-26T12:38:06.371Z,6.84
2017-01-26T12:39:15.340Z,6.77
2017-01-26T12:40:24.292Z,6.69
2017-01-26T12:41:33.259Z,6.66
2017-01-26T12:42:42.270Z,6.66
2017-01-26T12:43:51.230Z,6.64
2017-01-26T12:45:00.186Z,6.67
2017-01-26T12:46:09.148Z,6.62
2017-01-26T12:47:18.108Z,6.66
2017-01-26T12:48:27.069Z,6.64
2017-01-26T12:49:36.023Z,6.61
2017-01-26T12:50:44.996Z,6.59
2017-01-26T12:51:53.959Z,6.48
2017-01-26T12:53:03.005Z,6.37
2017-01-26T12:54:11.965Z,6.33
2017-01-26T12:55:20.982Z,6.41
2017-01-26T12:56:29.945Z,6.4
2017-01-26T12:57:38.902Z,6.27
2017-01-26T12:58:47.862Z,6.28
2017-01-26T12:59:56.830Z,6.3
2017-01-26T13:01:05.820Z,6.19
2017-01-26T13:02:14.786Z,6.27
2017-01-26T13:03:23.748Z,6.27
2017-01-26T13:04:32.704Z,6.34
2017-01-26T13:05:41.664Z,6.19
2017-01-26T13:06:50.626Z,6.19
2017-01-26T13:07:59.584Z,6.19
2017-01-26T13:09:08.535Z,6.19
2017-01-26T13:10:17.505Z,6.25
2017-01-26T13:11:26.459Z,6.25
2017-01-26T13:12:35.419Z,6.28
2017-01-26T13:13:44.381Z,6.33
2017-01-26T13:14:53.337Z,6.31
2017-01-26T13:16:02.292Z,6.3
2017-01-26T13:17:11.248Z,6.3
2017-01-26T13:18:20.307Z,6.28
2017-01-26T13:19:29.268Z,6.17
2017-01-26T13:20:38.261Z,6.21
2017-01-26T13:21:47.222Z,6.18
2017-01-26T13:22:56.173Z,6.22
2017-01-26T13:24:05.134Z,6.17
2017-01-26T13:25:14.091Z,6.18
2017-01-26T13:26:23.050Z,6.19
2017-01-26T13:27:32.002Z,6.18
2017-01-26T13:28:40.953Z,6.15
2017-01-26T13:29:49.906Z,6.12
2017-01-26T13:30:58.894Z,6.14
2017-01-26T13:32:07.849Z,5.99
2017-01-26T13:33:16.811Z,6.06
2017-01-26T13:34:25.773Z,6.06
2017-01-26T13:35:34.733Z,6.04
2017-01-26T13:36:43.772Z,6.06
2017-01-26T13:37:52.727Z,6.17
2017-01-26T13:39:01.777Z,6.11
2017-01-26T13:40:10.732Z,6.14
2017-01-26T13:41:20.097Z,6.15
2017-01-26T13:42:29.684Z,6.19
2017-01-26T13:43:39.655Z,6.17
2017-01-26T13:44:48.609Z,6.18
2017-01-26T13:45:57.570Z,6.12
2017-01-26T13:47:06.528Z,6.21
2017-01-26T13:48:16.759Z,6.19
2017-01-26T13:49:25.714Z,6.03
2017-01-26T13:50:34.798Z,6.01
2017-01-26T13:51:43.984Z,5.96
2017-01-26T13:52:53.535Z,5.97
2017-01-26T13:54:02.937Z,5.89
2017-01-26T13:55:11.961Z,5.83
2017-01-26T13:56:21.323Z,5.85
2017-01-26T13:57:31.327Z,5.82
2017-01-26T13:58:41.168Z,5.81
2017-01-26T13:59:50.126Z,5.83
2017-01-26T14:00:59.166Z,5.78
2017-01-26T14:02:08.134Z,5.76
2017-01-26T14:03:17.184Z,5.72
2017-01-26T14:04:27.219Z,5.71
2017-01-26T14:05:39.370Z,5.67
2017-01-26T14:06:51.172Z,5.71
2017-01-26T14:08:01.293Z,5.76
2017-01-26T14:09:19.964Z,5.67
2017-01-26T14:10:30.968Z,5.67
2017-01-26T14:11:41.582Z,5.76
2017-01-26T14:12:52.180Z,5.85
2017-01-26T14:14:04.094Z,5.65
2017-01-26T14:15:14.130Z,5.71
2017-01-26T14:16:23.098Z,5.65
2017-01-26T14:17:32.047Z,5.75
2017-01-26T14:18:41.002Z,5.65
2017-01-26T14:19:49.952Z,5.71
2017-01-26T14:20:58.906Z,5.56
2017-01-26T14:22:07.861Z,5.48
2017-01-26T14:23:16.991Z,5.43
2017-01-26T14:24:25.981Z,5.38
2017-01-26T14:25:34.940Z,5.3
2017-01-26T14:26:43.889Z,5.33
2017-01-26T14:27:52.849Z,5.28
2017-01-26T14:29:01.846Z,5.25
2017-01-26T14:30:10.798Z,5.28
2017-01-26T14:31:19.759Z,5.25
2017-01-26T14:32:28.804Z,5.24
2017-01-26T14:33:37.756Z,5.24
2017-01-26T14:34:46.716Z,5.25
2017-01-26T14:35:55.676Z,5.3
2017-01-26T14:37:05.039Z,5.13
2017-01-26T14:38:13.990Z,5.24
2017-01-26T14:39:23.028Z,5.1
2017-01-26T14:40:31.982Z,5.27
2017-01-26T14:41:40.933Z,5.22
2017-01-26T14:42:49.885Z,5.18
2017-01-26T14:43:58.844Z,5.12
2017-01-26T14:45:07.807Z,5.07
2017-01-26T14:46:16.765Z,5.06
2017-01-26T14:47:25.723Z,5.12
2017-01-26T14:48:34.680Z,5.09
2017-01-26T14:49:43.493Z,5.12
2017-01-26T14:50:52.493Z,5.12
2017-01-26T14:52:01.452Z,5.12
2017-01-26T14:53:10.407Z,5.09
2017-01-26T14:54:19.369Z,5.06
2017-01-26T14:55:28.414Z,5.04
2017-01-26T14:56:37.363Z,5.03
2017-01-26T14:57:46.316Z,5.09
2017-01-26T14:58:55.276Z,5.12
2017-01-26T15:00:04.667Z,5
2017-01-26T15:01:13.710Z,5.02
2017-01-26T15:02:22.672Z,5
2017-01-26T15:03:31.624Z,4.97
2017-01-26T15:04:40.660Z,5.1
2017-01-26T15:05:49.610Z,4.96
2017-01-26T15:06:58.561Z,5
2017-01-26T15:08:07.521Z,4.91
2017-01-26T15:09:16.474Z,4.89
2017-01-26T15:10:25.430Z,4.92
2017-01-26T15:11:34.468Z,4.86
2017-01-26T15:12:43.841Z,4.8
2017-01-26T15:13:52.794Z,4.78
2017-01-26T15:15:01.845Z,4.72
2017-01-26T15:16:10.800Z,4.78
2017-01-26T15:17:20.478Z,4.72
2017-01-26T15:18:29.651Z,4.73
2017-01-26T15:19:40.156Z,4.73
2017-01-26T15:20:50.121Z,4.77
2017-01-26T15:22:05.366Z,4.75
2017-01-26T15:23:18.864Z,4.72
2017-01-26T15:24:27.826Z,4.67
2017-01-26T15:25:37.153Z,4.7